sensor_id;sensor_type;location;lat;lon;timestamp;P1;durP1;ratioP1;P2;durP2;ratioP2
13849;SDS011;6995;52.618;13.488;2023-08-20T00:01:31;37.90;;;34.90;;
13849;SDS011;6995;52.618;13.488;2023-08-20T00:03:57;38.80;;;35.83;;
13849;SDS011;6995;52.618;13.488;2023-08-20T00:06:23;37.97;;;34.83;;
13849;SDS011;6995;52.618;13.488;2023-08-20T00:08:50;37.92;;;35.08;;
13849;SDS011;6995;52.618;13.488;2023-08-20T00:11:15;37.80;;;34.63;;
13849;SDS011;6995;52.618;13.488;2023-08-20T00:13:41;37.90;;;34.92;;
13849;SDS011;6995;52.618;13.488;2023-08-20T00:16:08;38.60;;;35.70;;
13849;SDS011;6995;52.618;13.488;2023-08-20T00:18:34;39.00;;;36.17;;
13849;SDS011;6995;52.618;13.488;2023-08-20T00:21:00;38.95;;;35.95;;
13849;SDS011;6995;52.618;13.488;2023-08-20T00:23:26;37.63;;;34.63;;
13849;SDS011;6995;52.618;13.488;2023-08-20T00:25:52;37.10;;;34.30;;
13849;SDS011;6995;52.618;13.488;2023-08-20T00:28:21;38.58;;;35.50;;
13849;SDS011;6995;52.618;13.488;2023-08-20T00:30:47;37.10;;;34.22;;
13849;SDS011;6995;52.618;13.488;2023-08-20T00:33:14;37.22;;;34.40;;
13849;SDS011;6995;52.618;13.488;2023-08-20T00:35:41;37.30;;;34.30;;
13849;SDS011;6995;52.618;13.488;2023-08-20T00:38:07;38.58;;;35.67;;
13849;SDS011;6995;52.618;13.488;2023-08-20T00:40:33;39.38;;;36.47;;
13849;SDS011;6995;52.618;13.488;2023-08-20T00:42:58;40.22;;;37.13;;
13849;SDS011;6995;52.618;13.488;2023-08-20T00:45:24;40.00;;;37.03;;
13849;SDS011;6995;52.618;13.488;2023-08-20T00:47:51;40.70;;;37.67;;
13849;SDS011;6995;52.618;13.488;2023-08-20T00:50:17;39.25;;;36.42;;
13849;SDS011;6995;52.618;13.488;2023-08-20T00:52:44;36.83;;;34.05;;
13849;SDS011;6995;52.618;13.488;2023-08-20T00:55:11;38.65;;;35.47;;
13849;SDS011;6995;52.618;13.488;2023-08-20T00:57:40;38.92;;;35.90;;
13849;SDS011;6995;52.618;13.488;2023-08-20T01:00:06;39.65;;;36.58;;
13849;SDS011;6995;52.618;13.488;2023-08-20T01:02:36;37.00;;;34.33;;
13849;SDS011;6995;52.618;13.488;2023-08-20T01:05:03;37.85;;;35.15;;
13849;SDS011;6995;52.618;13.488;2023-08-20T01:13:06;36.00;;;33.28;;
13849;SDS011;6995;52.618;13.488;2023-08-20T01:15:32;38.72;;;35.72;;
13849;SDS011;6995;52.618;13.488;2023-08-20T01:17:58;37.08;;;34.35;;
13849;SDS011;6995;52.618;13.488;2023-08-20T01:20:25;37.50;;;34.58;;
13849;SDS011;6995;52.618;13.488;2023-08-20T01:31:08;38.20;;;35.42;;
13849;SDS011;6995;52.618;13.488;2023-08-20T01:33:35;36.50;;;33.90;;
13849;SDS011;6995;52.618;13.488;2023-08-20T01:36:01;37.47;;;34.88;;
13849;SDS011;6995;52.618;13.488;2023-08-20T01:38:27;37.22;;;34.03;;
13849;SDS011;6995;52.618;13.488;2023-08-20T01:40:52;34.92;;;32.42;;
13849;SDS011;6995;52.618;13.488;2023-08-20T01:43:18;38.92;;;36.35;;
13849;SDS011;6995;52.618;13.488;2023-08-20T01:45:44;42.00;;;38.80;;
13849;SDS011;6995;52.618;13.488;2023-08-20T01:48:10;45.45;;;42.63;;
13849;SDS011;6995;52.618;13.488;2023-08-20T01:50:36;44.58;;;41.90;;
13849;SDS011;6995;52.618;13.488;2023-08-20T01:53:02;51.05;;;47.95;;
13849;SDS011;6995;52.618;13.488;2023-08-20T01:55:28;50.08;;;47.05;;
13849;SDS011;6995;52.618;13.488;2023-08-20T01:57:53;44.22;;;41.22;;
13849;SDS011;6995;52.618;13.488;2023-08-20T02:00:26;45.08;;;42.00;;
13849;SDS011;6995;52.618;13.488;2023-08-20T02:02:53;42.70;;;40.00;;
13849;SDS011;6995;52.618;13.488;2023-08-20T02:05:19;52.40;;;49.10;;
13849;SDS011;6995;52.618;13.488;2023-08-20T02:07:44;51.67;;;48.47;;
13849;SDS011;6995;52.618;13.488;2023-08-20T02:10:10;49.47;;;46.40;;
13849;SDS011;6995;52.618;13.488;2023-08-20T02:12:36;39.97;;;37.38;;
13849;SDS011;6995;52.618;13.488;2023-08-20T02:15:01;38.25;;;35.83;;
13849;SDS011;6995;52.618;13.488;2023-08-20T02:17:28;41.08;;;38.28;;
13849;SDS011;6995;52.618;13.488;2023-08-20T02:19:54;37.78;;;35.17;;
13849;SDS011;6995;52.618;13.488;2023-08-20T02:22:20;36.33;;;33.63;;
13849;SDS011;6995;52.618;13.488;2023-08-20T02:24:46;33.90;;;31.60;;
13849;SDS011;6995;52.618;13.488;2023-08-20T02:27:14;35.22;;;32.38;;
13849;SDS011;6995;52.618;13.488;2023-08-20T02:29:39;35.55;;;32.95;;
13849;SDS011;6995;52.618;13.488;2023-08-20T02:32:05;33.90;;;31.50;;
13849;SDS011;6995;52.618;13.488;2023-08-20T02:34:31;34.00;;;31.70;;
13849;SDS011;6995;52.618;13.488;2023-08-20T02:36:56;34.53;;;32.08;;
13849;SDS011;6995;52.618;13.488;2023-08-20T02:39:22;33.40;;;31.00;;
13849;SDS011;6995;52.618;13.488;2023-08-20T02:41:49;32.13;;;29.70;;
13849;SDS011;6995;52.618;13.488;2023-08-20T02:44:15;36.08;;;33.65;;
13849;SDS011;6995;52.618;13.488;2023-08-20T02:46:41;36.17;;;33.55;;
13849;SDS011;6995;52.618;13.488;2023-08-20T02:49:06;35.80;;;33.10;;
13849;SDS011;6995;52.618;13.488;2023-08-20T02:51:32;37.83;;;35.17;;
13849;SDS011;6995;52.618;13.488;2023-08-20T02:53:57;38.13;;;35.13;;
13849;SDS011;6995;52.618;13.488;2023-08-20T02:56:23;37.40;;;34.83;;
13849;SDS011;6995;52.618;13.488;2023-08-20T02:58:49;41.25;;;38.28;;
13849;SDS011;6995;52.618;13.488;2023-08-20T03:01:20;42.92;;;40.00;;
13849;SDS011;6995;52.618;13.488;2023-08-20T03:03:49;37.30;;;34.58;;
13849;SDS011;6995;52.618;13.488;2023-08-20T03:06:15;37.85;;;35.00;;
13849;SDS011;6995;52.618;13.488;2023-08-20T03:08:40;39.50;;;36.80;;
13849;SDS011;6995;52.618;13.488;2023-08-20T03:11:06;39.15;;;36.45;;
13849;SDS011;6995;52.618;13.488;2023-08-20T03:13:31;40.33;;;37.50;;
13849;SDS011;6995;52.618;13.488;2023-08-20T03:15:57;38.88;;;36.28;;
13849;SDS011;6995;52.618;13.488;2023-08-20T03:18:23;38.60;;;35.58;;
13849;SDS011;6995;52.618;13.488;2023-08-20T03:20:48;36.33;;;33.72;;
13849;SDS011;6995;52.618;13.488;2023-08-20T03:23:14;37.05;;;34.47;;
13849;SDS011;6995;52.618;13.488;2023-08-20T03:25:39;36.13;;;33.60;;
13849;SDS011;6995;52.618;13.488;2023-08-20T03:28:05;37.97;;;34.80;;
13849;SDS011;6995;52.618;13.488;2023-08-20T03:30:31;37.50;;;34.80;;
13849;SDS011;6995;52.618;13.488;2023-08-20T03:32:56;36.22;;;33.63;;
13849;SDS011;6995;52.618;13.488;2023-08-20T03:35:22;38.33;;;35.63;;
13849;SDS011;6995;52.618;13.488;2023-08-20T03:37:48;36.95;;;34.35;;
13849;SDS011;6995;52.618;13.488;2023-08-20T03:40:13;40.78;;;37.88;;
13849;SDS011;6995;52.618;13.488;2023-08-20T03:42:40;41.58;;;38.67;;
13849;SDS011;6995;52.618;13.488;2023-08-20T03:45:06;42.88;;;39.97;;
13849;SDS011;6995;52.618;13.488;2023-08-20T03:47:31;41.60;;;38.90;;
13849;SDS011;6995;52.618;13.488;2023-08-20T03:49:57;40.40;;;37.22;;
13849;SDS011;6995;52.618;13.488;2023-08-20T03:52:23;38.72;;;35.95;;
13849;SDS011;6995;52.618;13.488;2023-08-20T03:54:48;39.47;;;36.70;;
13849;SDS011;6995;52.618;13.488;2023-08-20T03:57:15;36.70;;;34.22;;
13849;SDS011;6995;52.618;13.488;2023-08-20T03:59:41;37.00;;;34.35;;
13849;SDS011;6995;52.618;13.488;2023-08-20T04:02:06;39.72;;;36.88;;
13849;SDS011;6995;52.618;13.488;2023-08-20T04:04:34;34.55;;;32.20;;
13849;SDS011;6995;52.618;13.488;2023-08-20T04:07:02;37.90;;;35.25;;
13849;SDS011;6995;52.618;13.488;2023-08-20T04:09:27;40.58;;;37.92;;
13849;SDS011;6995;52.618;13.488;2023-08-20T04:11:53;39.70;;;36.85;;
13849;SDS011;6995;52.618;13.488;2023-08-20T04:14:19;37.90;;;35.08;;
13849;SDS011;6995;52.618;13.488;2023-08-20T04:16:44;36.13;;;33.55;;
13849;SDS011;6995;52.618;13.488;2023-08-20T04:19:10;36.90;;;34.03;;
13849;SDS011;6995;52.618;13.488;2023-08-20T04:21:36;34.72;;;31.73;;
13849;SDS011;6995;52.618;13.488;2023-08-20T04:24:02;34.88;;;32.30;;
13849;SDS011;6995;52.618;13.488;2023-08-20T04:26:28;35.47;;;33.10;;
13849;SDS011;6995;52.618;13.488;2023-08-20T04:28:53;37.45;;;34.75;;
13849;SDS011;6995;52.618;13.488;2023-08-20T04:31:19;38.33;;;35.67;;
13849;SDS011;6995;52.618;13.488;2023-08-20T04:33:45;37.78;;;34.97;;
13849;SDS011;6995;52.618;13.488;2023-08-20T04:36:11;39.03;;;36.22;;
13849;SDS011;6995;52.618;13.488;2023-08-20T04:38:37;39.10;;;36.38;;
13849;SDS011;6995;52.618;13.488;2023-08-20T04:41:02;36.53;;;33.92;;
13849;SDS011;6995;52.618;13.488;2023-08-20T04:43:28;38.50;;;35.75;;
13849;SDS011;6995;52.618;13.488;2023-08-20T04:45:53;38.72;;;35.78;;
13849;SDS011;6995;52.618;13.488;2023-08-20T04:48:19;37.55;;;34.97;;
13849;SDS011;6995;52.618;13.488;2023-08-20T04:50:45;40.03;;;37.25;;
13849;SDS011;6995;52.618;13.488;2023-08-20T04:53:12;42.05;;;38.35;;
13849;SDS011;6995;52.618;13.488;2023-08-20T04:55:37;42.50;;;39.70;;
13849;SDS011;6995;52.618;13.488;2023-08-20T04:58:03;41.72;;;38.88;;
13849;SDS011;6995;52.618;13.488;2023-08-20T05:00:29;40.13;;;37.28;;
13849;SDS011;6995;52.618;13.488;2023-08-20T05:02:54;42.75;;;39.85;;
13849;SDS011;6995;52.618;13.488;2023-08-20T05:05:21;38.63;;;35.90;;
13849;SDS011;6995;52.618;13.488;2023-08-20T05:07:47;41.40;;;38.40;;
13849;SDS011;6995;52.618;13.488;2023-08-20T05:10:12;41.90;;;38.97;;
13849;SDS011;6995;52.618;13.488;2023-08-20T05:12:38;42.10;;;39.00;;
13849;SDS011;6995;52.618;13.488;2023-08-20T05:15:03;41.55;;;38.67;;
13849;SDS011;6995;52.618;13.488;2023-08-20T05:17:29;42.03;;;39.10;;
13849;SDS011;6995;52.618;13.488;2023-08-20T05:19:55;39.15;;;36.38;;
13849;SDS011;6995;52.618;13.488;2023-08-20T05:22:23;40.45;;;37.75;;
13849;SDS011;6995;52.618;13.488;2023-08-20T05:24:49;40.85;;;38.15;;
13849;SDS011;6995;52.618;13.488;2023-08-20T05:27:15;42.88;;;39.78;;
13849;SDS011;6995;52.618;13.488;2023-08-20T05:29:42;36.92;;;34.10;;
13849;SDS011;6995;52.618;13.488;2023-08-20T05:32:08;33.75;;;31.25;;
13849;SDS011;6995;52.618;13.488;2023-08-20T05:34:34;36.53;;;33.92;;
13849;SDS011;6995;52.618;13.488;2023-08-20T05:37:00;36.45;;;33.70;;
13849;SDS011;6995;52.618;13.488;2023-08-20T05:39:26;36.05;;;33.35;;
13849;SDS011;6995;52.618;13.488;2023-08-20T05:41:52;34.88;;;32.28;;
13849;SDS011;6995;52.618;13.488;2023-08-20T05:44:19;34.17;;;31.80;;
13849;SDS011;6995;52.618;13.488;2023-08-20T05:46:44;35.03;;;32.53;;
13849;SDS011;6995;52.618;13.488;2023-08-20T05:49:11;35.85;;;33.35;;
13849;SDS011;6995;52.618;13.488;2023-08-20T05:51:38;36.60;;;33.80;;
13849;SDS011;6995;52.618;13.488;2023-08-20T05:54:04;37.13;;;34.28;;
13849;SDS011;6995;52.618;13.488;2023-08-20T05:56:30;35.50;;;32.95;;
13849;SDS011;6995;52.618;13.488;2023-08-20T05:58:55;36.28;;;33.92;;
13849;SDS011;6995;52.618;13.488;2023-08-20T06:01:21;33.17;;;30.88;;
13849;SDS011;6995;52.618;13.488;2023-08-20T06:03:46;36.85;;;34.03;;
13849;SDS011;6995;52.618;13.488;2023-08-20T06:06:12;36.70;;;34.00;;
13849;SDS011;6995;52.618;13.488;2023-08-20T06:08:38;36.85;;;34.10;;
13849;SDS011;6995;52.618;13.488;2023-08-20T06:11:03;39.92;;;37.05;;
13849;SDS011;6995;52.618;13.488;2023-08-20T06:13:29;38.35;;;35.85;;
13849;SDS011;6995;52.618;13.488;2023-08-20T06:15:54;40.90;;;38.17;;
13849;SDS011;6995;52.618;13.488;2023-08-20T06:18:20;50.25;;;47.20;;
13849;SDS011;6995;52.618;13.488;2023-08-20T06:20:46;47.05;;;44.03;;
13849;SDS011;6995;52.618;13.488;2023-08-20T06:23:11;42.45;;;39.75;;
13849;SDS011;6995;52.618;13.488;2023-08-20T06:25:38;42.72;;;39.80;;
13849;SDS011;6995;52.618;13.488;2023-08-20T06:28:03;45.50;;;42.55;;
13849;SDS011;6995;52.618;13.488;2023-08-20T06:30:29;47.40;;;44.45;;
13849;SDS011;6995;52.618;13.488;2023-08-20T06:32:55;50.72;;;47.33;;
13849;SDS011;6995;52.618;13.488;2023-08-20T06:35:21;45.40;;;42.55;;
13849;SDS011;6995;52.618;13.488;2023-08-20T06:37:46;42.55;;;39.65;;
13849;SDS011;6995;52.618;13.488;2023-08-20T06:40:29;47.75;;;44.70;;
13849;SDS011;6995;52.618;13.488;2023-08-20T06:42:55;56.75;;;53.35;;
13849;SDS011;6995;52.618;13.488;2023-08-20T06:45:21;52.55;;;49.22;;
13849;SDS011;6995;52.618;13.488;2023-08-20T06:47:46;52.42;;;49.33;;
13849;SDS011;6995;52.618;13.488;2023-08-20T06:50:12;45.28;;;42.28;;
13849;SDS011;6995;52.618;13.488;2023-08-20T06:52:38;31.15;;;28.80;;
13849;SDS011;6995;52.618;13.488;2023-08-20T06:55:03;32.53;;;30.23;;
13849;SDS011;6995;52.618;13.488;2023-08-20T06:57:29;42.13;;;39.63;;
13849;SDS011;6995;52.618;13.488;2023-08-20T06:59:55;69.82;;;66.00;;
13849;SDS011;6995;52.618;13.488;2023-08-20T07:02:21;79.68;;;75.43;;
13849;SDS011;6995;52.618;13.488;2023-08-20T07:04:46;72.93;;;68.78;;
13849;SDS011;6995;52.618;13.488;2023-08-20T07:07:12;47.42;;;44.38;;
13849;SDS011;6995;52.618;13.488;2023-08-20T07:09:39;47.92;;;44.80;;
13849;SDS011;6995;52.618;13.488;2023-08-20T07:12:05;59.08;;;55.65;;
13849;SDS011;6995;52.618;13.488;2023-08-20T07:14:31;61.30;;;57.75;;
13849;SDS011;6995;52.618;13.488;2023-08-20T07:16:56;62.88;;;59.35;;
13849;SDS011;6995;52.618;13.488;2023-08-20T07:19:22;74.40;;;70.45;;
13849;SDS011;6995;52.618;13.488;2023-08-20T07:21:48;67.95;;;63.97;;
13849;SDS011;6995;52.618;13.488;2023-08-20T07:24:13;58.83;;;55.53;;
13849;SDS011;6995;52.618;13.488;2023-08-20T07:26:39;56.33;;;53.03;;
13849;SDS011;6995;52.618;13.488;2023-08-20T07:29:05;56.70;;;53.47;;
13849;SDS011;6995;52.618;13.488;2023-08-20T07:31:32;49.20;;;46.30;;
13849;SDS011;6995;52.618;13.488;2023-08-20T07:33:59;33.30;;;30.90;;
13849;SDS011;6995;52.618;13.488;2023-08-20T07:36:27;32.75;;;30.17;;
13849;SDS011;6995;52.618;13.488;2023-08-20T07:38:53;32.35;;;30.15;;
13849;SDS011;6995;52.618;13.488;2023-08-20T07:41:19;31.17;;;28.98;;
13849;SDS011;6995;52.618;13.488;2023-08-20T07:43:46;32.70;;;30.30;;
13849;SDS011;6995;52.618;13.488;2023-08-20T07:46:12;32.05;;;30.00;;
13849;SDS011;6995;52.618;13.488;2023-08-20T07:48:40;33.67;;;31.25;;
13849;SDS011;6995;52.618;13.488;2023-08-20T07:53:45;44.40;;;41.63;;
13849;SDS011;6995;52.618;13.488;2023-08-20T07:56:10;54.55;;;51.33;;
13849;SDS011;6995;52.618;13.488;2023-08-20T07:58:36;61.60;;;58.25;;
13849;SDS011;6995;52.618;13.488;2023-08-20T08:01:02;65.60;;;61.65;;
13849;SDS011;6995;52.618;13.488;2023-08-20T08:03:33;79.28;;;75.13;;
13849;SDS011;6995;52.618;13.488;2023-08-20T08:05:58;83.70;;;79.20;;
13849;SDS011;6995;52.618;13.488;2023-08-20T08:08:24;55.90;;;52.63;;
13849;SDS011;6995;52.618;13.488;2023-08-20T08:10:50;64.45;;;60.30;;
13849;SDS011;6995;52.618;13.488;2023-08-20T08:13:18;60.47;;;56.92;;
13849;SDS011;6995;52.618;13.488;2023-08-20T08:15:56;50.75;;;47.65;;
13849;SDS011;6995;52.618;13.488;2023-08-20T08:21:45;49.35;;;46.13;;
13849;SDS011;6995;52.618;13.488;2023-08-20T08:24:11;35.03;;;32.60;;
13849;SDS011;6995;52.618;13.488;2023-08-20T08:26:38;30.55;;;28.27;;
13849;SDS011;6995;52.618;13.488;2023-08-20T08:29:04;31.13;;;28.73;;
13849;SDS011;6995;52.618;13.488;2023-08-20T08:34:27;33.00;;;30.58;;
13849;SDS011;6995;52.618;13.488;2023-08-20T08:36:53;29.77;;;27.67;;
13849;SDS011;6995;52.618;13.488;2023-08-20T08:39:19;33.22;;;30.73;;
13849;SDS011;6995;52.618;13.488;2023-08-20T08:41:44;31.52;;;29.17;;
13849;SDS011;6995;52.618;13.488;2023-08-20T08:44:15;31.83;;;29.52;;
13849;SDS011;6995;52.618;13.488;2023-08-20T08:46:41;32.47;;;30.08;;
13849;SDS011;6995;52.618;13.488;2023-08-20T08:49:07;31.45;;;29.23;;
13849;SDS011;6995;52.618;13.488;2023-08-20T08:51:34;32.28;;;29.92;;
13849;SDS011;6995;52.618;13.488;2023-08-20T08:54:01;34.53;;;32.15;;
13849;SDS011;6995;52.618;13.488;2023-08-20T08:56:27;31.55;;;29.35;;
13849;SDS011;6995;52.618;13.488;2023-08-20T08:58:53;32.17;;;29.98;;
13849;SDS011;6995;52.618;13.488;2023-08-20T09:01:19;31.38;;;29.27;;
13849;SDS011;6995;52.618;13.488;2023-08-20T09:03:46;31.42;;;29.23;;
13849;SDS011;6995;52.618;13.488;2023-08-20T09:06:12;30.65;;;28.48;;
13849;SDS011;6995;52.618;13.488;2023-08-20T09:08:38;31.30;;;29.02;;
13849;SDS011;6995;52.618;13.488;2023-08-20T09:11:03;30.73;;;28.40;;
13849;SDS011;6995;52.618;13.488;2023-08-20T09:13:39;31.63;;;29.35;;
13849;SDS011;6995;52.618;13.488;2023-08-20T09:16:07;33.63;;;31.23;;
13849;SDS011;6995;52.618;13.488;2023-08-20T09:18:46;30.88;;;28.70;;
13849;SDS011;6995;52.618;13.488;2023-08-20T09:21:12;30.83;;;28.38;;
13849;SDS011;6995;52.618;13.488;2023-08-20T09:23:44;32.50;;;30.10;;
13849;SDS011;6995;52.618;13.488;2023-08-20T09:26:11;32.42;;;30.15;;
13849;SDS011;6995;52.618;13.488;2023-08-20T09:28:43;33.58;;;31.15;;
13849;SDS011;6995;52.618;13.488;2023-08-20T09:31:12;33.65;;;31.25;;
13849;SDS011;6995;52.618;13.488;2023-08-20T09:33:48;33.28;;;31.05;;
13849;SDS011;6995;52.618;13.488;2023-08-20T09:36:15;30.88;;;28.67;;
13849;SDS011;6995;52.618;13.488;2023-08-20T09:38:41;31.65;;;29.33;;
13849;SDS011;6995;52.618;13.488;2023-08-20T09:41:07;32.22;;;29.75;;
13849;SDS011;6995;52.618;13.488;2023-08-20T09:43:37;32.78;;;30.20;;
13849;SDS011;6995;52.618;13.488;2023-08-20T09:46:04;31.60;;;29.40;;
13849;SDS011;6995;52.618;13.488;2023-08-20T09:48:34;31.42;;;29.27;;
13849;SDS011;6995;52.618;13.488;2023-08-20T09:51:10;31.40;;;29.08;;
13849;SDS011;6995;52.618;13.488;2023-08-20T09:53:51;30.23;;;28.08;;
13849;SDS011;6995;52.618;13.488;2023-08-20T09:56:23;29.70;;;27.70;;
13849;SDS011;6995;52.618;13.488;2023-08-20T09:58:55;30.55;;;28.15;;
13849;SDS011;6995;52.618;13.488;2023-08-20T10:01:24;29.73;;;27.63;;
13849;SDS011;6995;52.618;13.488;2023-08-20T10:03:51;29.35;;;27.17;;
13849;SDS011;6995;52.618;13.488;2023-08-20T10:06:17;29.02;;;27.08;;
13849;SDS011;6995;52.618;13.488;2023-08-20T10:08:45;28.08;;;26.08;;
13849;SDS011;6995;52.618;13.488;2023-08-20T10:11:12;31.25;;;28.85;;
13849;SDS011;6995;52.618;13.488;2023-08-20T10:13:38;27.75;;;25.83;;
13849;SDS011;6995;52.618;13.488;2023-08-20T10:16:04;28.27;;;26.55;;
13849;SDS011;6995;52.618;13.488;2023-08-20T10:18:30;26.00;;;24.17;;
13849;SDS011;6995;52.618;13.488;2023-08-20T10:20:57;34.72;;;32.72;;
13849;SDS011;6995;52.618;13.488;2023-08-20T10:23:24;26.88;;;25.17;;
13849;SDS011;6995;52.618;13.488;2023-08-20T10:25:51;26.73;;;25.13;;
13849;SDS011;6995;52.618;13.488;2023-08-20T10:31:06;29.25;;;27.63;;
13849;SDS011;6995;52.618;13.488;2023-08-20T10:33:49;39.00;;;36.95;;
13849;SDS011;6995;52.618;13.488;2023-08-20T10:36:20;33.15;;;31.10;;
13849;SDS011;6995;52.618;13.488;2023-08-20T10:38:47;24.20;;;22.90;;
13849;SDS011;6995;52.618;13.488;2023-08-20T10:41:14;27.30;;;25.55;;
13849;SDS011;6995;52.618;13.488;2023-08-20T10:43:47;22.88;;;21.38;;
13849;SDS011;6995;52.618;13.488;2023-08-20T10:46:21;23.73;;;22.40;;
13849;SDS011;6995;52.618;13.488;2023-08-20T10:51:28;22.38;;;20.98;;
13849;SDS011;6995;52.618;13.488;2023-08-20T10:59:15;22.23;;;20.83;;
13849;SDS011;6995;52.618;13.488;2023-08-20T11:01:47;19.55;;;18.45;;
13849;SDS011;6995;52.618;13.488;2023-08-20T11:04:18;19.85;;;18.83;;
13849;SDS011;6995;52.618;13.488;2023-08-20T11:06:46;19.55;;;18.45;;
13849;SDS011;6995;52.618;13.488;2023-08-20T11:09:14;22.20;;;20.80;;
13849;SDS011;6995;52.618;13.488;2023-08-20T11:11:40;21.67;;;20.33;;
13849;SDS011;6995;52.618;13.488;2023-08-20T11:14:07;22.13;;;20.98;;
13849;SDS011;6995;52.618;13.488;2023-08-20T11:16:36;22.08;;;20.98;;
13849;SDS011;6995;52.618;13.488;2023-08-20T11:19:03;21.90;;;20.73;;
13849;SDS011;6995;52.618;13.488;2023-08-20T11:21:39;24.02;;;22.67;;
13849;SDS011;6995;52.618;13.488;2023-08-20T11:24:06;24.58;;;23.27;;
13849;SDS011;6995;52.618;13.488;2023-08-20T11:26:33;21.23;;;20.13;;
13849;SDS011;6995;52.618;13.488;2023-08-20T11:29:00;22.13;;;21.13;;
13849;SDS011;6995;52.618;13.488;2023-08-20T11:31:27;22.88;;;21.70;;
13849;SDS011;6995;52.618;13.488;2023-08-20T11:33:53;23.98;;;22.73;;
13849;SDS011;6995;52.618;13.488;2023-08-20T11:36:21;21.30;;;20.13;;
13849;SDS011;6995;52.618;13.488;2023-08-20T11:38:50;24.00;;;22.80;;
13849;SDS011;6995;52.618;13.488;2023-08-20T11:41:17;21.55;;;20.33;;
13849;SDS011;6995;52.618;13.488;2023-08-20T11:43:47;23.08;;;21.98;;
13849;SDS011;6995;52.618;13.488;2023-08-20T11:46:13;21.63;;;20.42;;
13849;SDS011;6995;52.618;13.488;2023-08-20T11:48:59;25.33;;;23.98;;
13849;SDS011;6995;52.618;13.488;2023-08-20T11:51:26;17.63;;;16.63;;
13849;SDS011;6995;52.618;13.488;2023-08-20T11:53:52;18.88;;;17.92;;
13849;SDS011;6995;52.618;13.488;2023-08-20T11:56:17;18.00;;;17.10;;
13849;SDS011;6995;52.618;13.488;2023-08-20T11:58:43;20.02;;;18.83;;
13849;SDS011;6995;52.618;13.488;2023-08-20T12:01:14;19.08;;;18.00;;
13849;SDS011;6995;52.618;13.488;2023-08-20T12:03:40;18.23;;;17.33;;
13849;SDS011;6995;52.618;13.488;2023-08-20T12:06:21;26.02;;;24.70;;
13849;SDS011;6995;52.618;13.488;2023-08-20T12:08:53;27.42;;;26.23;;
13849;SDS011;6995;52.618;13.488;2023-08-20T12:11:22;32.33;;;30.73;;
13849;SDS011;6995;52.618;13.488;2023-08-20T12:13:55;54.97;;;52.50;;
13849;SDS011;6995;52.618;13.488;2023-08-20T12:16:24;53.38;;;50.95;;
13849;SDS011;6995;52.618;13.488;2023-08-20T12:18:52;44.95;;;42.75;;
13849;SDS011;6995;52.618;13.488;2023-08-20T12:21:18;50.88;;;48.58;;
13849;SDS011;6995;52.618;13.488;2023-08-20T12:23:47;47.47;;;45.38;;
13849;SDS011;6995;52.618;13.488;2023-08-20T12:26:12;43.22;;;41.20;;
13849;SDS011;6995;52.618;13.488;2023-08-20T12:28:38;43.15;;;41.05;;
13849;SDS011;6995;52.618;13.488;2023-08-20T12:31:04;39.42;;;37.53;;
13849;SDS011;6995;52.618;13.488;2023-08-20T12:33:30;47.72;;;45.38;;
13849;SDS011;6995;52.618;13.488;2023-08-20T12:35:58;44.75;;;42.55;;
13849;SDS011;6995;52.618;13.488;2023-08-20T12:38:23;19.40;;;18.40;;
13849;SDS011;6995;52.618;13.488;2023-08-20T12:40:49;18.92;;;17.90;;
13849;SDS011;6995;52.618;13.488;2023-08-20T12:43:14;23.95;;;22.67;;
13849;SDS011;6995;52.618;13.488;2023-08-20T12:45:40;19.63;;;18.60;;
13849;SDS011;6995;52.618;13.488;2023-08-20T12:48:06;23.73;;;22.48;;
13849;SDS011;6995;52.618;13.488;2023-08-20T12:50:34;19.77;;;18.67;;
13849;SDS011;6995;52.618;13.488;2023-08-20T12:53:00;18.38;;;17.38;;
13849;SDS011;6995;52.618;13.488;2023-08-20T12:55:26;20.27;;;19.13;;
13849;SDS011;6995;52.618;13.488;2023-08-20T12:57:58;18.08;;;17.08;;
13849;SDS011;6995;52.618;13.488;2023-08-20T13:00:25;19.42;;;18.42;;
13849;SDS011;6995;52.618;13.488;2023-08-20T13:02:51;16.95;;;16.15;;
13849;SDS011;6995;52.618;13.488;2023-08-20T13:05:22;23.02;;;21.90;;
13849;SDS011;6995;52.618;13.488;2023-08-20T13:07:48;24.92;;;23.52;;
13849;SDS011;6995;52.618;13.488;2023-08-20T13:10:14;31.65;;;29.92;;
13849;SDS011;6995;52.618;13.488;2023-08-20T13:13:13;25.05;;;23.85;;
13849;SDS011;6995;52.618;13.488;2023-08-20T13:15:35;25.63;;;24.42;;
13849;SDS011;6995;52.618;13.488;2023-08-20T13:18:00;37.42;;;35.70;;
13849;SDS011;6995;52.618;13.488;2023-08-20T13:20:27;48.55;;;46.33;;
13849;SDS011;6995;52.618;13.488;2023-08-20T13:22:53;38.15;;;36.45;;
13849;SDS011;6995;52.618;13.488;2023-08-20T13:25:18;46.17;;;44.08;;
13849;SDS011;6995;52.618;13.488;2023-08-20T13:27:48;34.85;;;33.33;;
13849;SDS011;6995;52.618;13.488;2023-08-20T13:30:14;41.85;;;40.05;;
13849;SDS011;6995;52.618;13.488;2023-08-20T13:32:40;41.40;;;39.42;;
13849;SDS011;6995;52.618;13.488;2023-08-20T13:35:06;25.00;;;23.80;;
13849;SDS011;6995;52.618;13.488;2023-08-20T13:37:33;16.77;;;15.88;;
13849;SDS011;6995;52.618;13.488;2023-08-20T13:39:59;18.77;;;17.42;;
13849;SDS011;6995;52.618;13.488;2023-08-20T13:42:25;18.90;;;18.00;;
13849;SDS011;6995;52.618;13.488;2023-08-20T13:44:51;17.58;;;16.10;;
13849;SDS011;6995;52.618;13.488;2023-08-20T13:47:16;14.82;;;14.10;;
13849;SDS011;6995;52.618;13.488;2023-08-20T13:49:42;16.85;;;16.05;;
13849;SDS011;6995;52.618;13.488;2023-08-20T13:52:08;15.25;;;14.45;;
13849;SDS011;6995;52.618;13.488;2023-08-20T13:54:35;21.08;;;20.08;;
13849;SDS011;6995;52.618;13.488;2023-08-20T13:57:01;19.58;;;18.58;;
13849;SDS011;6995;52.618;13.488;2023-08-20T13:59:28;18.13;;;17.10;;
13849;SDS011;6995;52.618;13.488;2023-08-20T14:01:54;19.50;;;18.58;;
13849;SDS011;6995;52.618;13.488;2023-08-20T14:04:20;20.63;;;19.42;;
13849;SDS011;6995;52.618;13.488;2023-08-20T14:06:46;21.13;;;19.83;;
13849;SDS011;6995;52.618;13.488;2023-08-20T14:09:11;25.13;;;24.02;;
13849;SDS011;6995;52.618;13.488;2023-08-20T14:11:37;24.08;;;22.75;;
13849;SDS011;6995;52.618;13.488;2023-08-20T14:14:02;20.20;;;19.15;;
13849;SDS011;6995;52.618;13.488;2023-08-20T14:16:28;18.02;;;16.98;;
13849;SDS011;6995;52.618;13.488;2023-08-20T14:18:54;15.40;;;14.60;;
13849;SDS011;6995;52.618;13.488;2023-08-20T14:21:20;17.52;;;16.48;;
13849;SDS011;6995;52.618;13.488;2023-08-20T14:23:46;18.10;;;17.20;;
13849;SDS011;6995;52.618;13.488;2023-08-20T14:26:11;20.05;;;18.98;;
13849;SDS011;6995;52.618;13.488;2023-08-20T14:28:37;38.13;;;36.22;;
13849;SDS011;6995;52.618;13.488;2023-08-20T14:31:03;32.20;;;30.67;;
13849;SDS011;6995;52.618;13.488;2023-08-20T14:33:32;28.20;;;26.58;;
13849;SDS011;6995;52.618;13.488;2023-08-20T14:35:57;28.05;;;26.88;;
13849;SDS011;6995;52.618;13.488;2023-08-20T14:38:23;20.15;;;19.05;;
13849;SDS011;6995;52.618;13.488;2023-08-20T14:40:49;21.73;;;20.60;;
13849;SDS011;6995;52.618;13.488;2023-08-20T14:43:14;28.23;;;26.80;;
13849;SDS011;6995;52.618;13.488;2023-08-20T14:45:40;16.02;;;15.13;;
13849;SDS011;6995;52.618;13.488;2023-08-20T14:48:05;17.15;;;16.25;;
13849;SDS011;6995;52.618;13.488;2023-08-20T14:50:31;16.10;;;15.20;;
13849;SDS011;6995;52.618;13.488;2023-08-20T14:52:57;23.00;;;21.90;;